createdAt,value
2023-03-23T16:02:25.732Z,98686.52
2023-03-23T16:07:28.894Z,98688.73
2023-03-23T16:12:31.900Z,98693.11
2023-03-23T16:17:34.985Z,98698.34
2023-03-23T16:22:37.947Z,98702.62
2023-03-23T16:27:42.321Z,98712.34
2023-03-23T16:32:46.917Z,98718.21
2023-03-23T16:38:07.094Z,98719.09
2023-03-23T16:43:13.427Z,98717.27
2023-03-23T16:48:17.560Z,98721.09
2023-03-23T16:53:22.514Z,98729.95
2023-03-23T16:58:26.029Z,98728.83
2023-03-23T17:03:29.513Z,98721.95
2023-03-23T17:08:32.904Z,98720.98
2023-03-23T17:13:35.933Z,98727.46
2023-03-23T17:18:38.877Z,98722.80
2023-03-23T17:23:41.835Z,98720.41
2023-03-23T17:28:44.873Z,98727.36
2023-03-23T17:33:47.858Z,98734.31
2023-03-23T17:38:51.112Z,98740.73
2023-03-23T17:43:54.096Z,98739.06
2023-03-23T17:48:57.033Z,98736.52
2023-03-23T17:54:00.021Z,98723.38
2023-03-23T17:59:03.650Z,98728.08
2023-03-23T18:04:06.774Z,98737.00
2023-03-23T18:09:10.566Z,98745.38
2023-03-23T18:14:13.877Z,98750.73
2023-03-23T18:19:17.476Z,98755.31
2023-03-23T18:24:21.013Z,98764.98
2023-03-23T18:29:23.920Z,98774.69
2023-03-23T18:34:26.849Z,98774.75
2023-03-23T18:39:31.803Z,98779.36
2023-03-23T18:44:34.863Z,98787.27
2023-03-23T18:49:38.058Z,98797.47
2023-03-23T18:54:45.223Z,98797.39
2023-03-23T18:59:48.949Z,98796.70
2023-03-23T19:04:51.975Z,98784.44
2023-03-23T19:09:55.133Z,98788.50
2023-03-23T19:14:58.185Z,98788.05
2023-03-23T19:20:02.216Z,98784.17
2023-03-23T19:25:08.870Z,98790.80
2023-03-23T19:30:12.131Z,98795.71
2023-03-23T19:40:49.888Z,98777.59
2023-03-23T19:45:43.708Z,98767.21
2023-03-23T19:50:51.023Z,98774.02
2023-03-23T19:55:53.970Z,98785.69
2023-03-23T20:00:57.113Z,98789.90
2023-03-23T20:06:12.811Z,98795.52
2023-03-23T20:11:18.937Z,98792.77
2023-03-23T20:16:21.989Z,98805.90
2023-03-23T20:21:25.487Z,98814.34
2023-03-23T20:26:36.851Z,98820.44
2023-03-23T20:31:42.021Z,98813.20
2023-03-23T20:36:46.462Z,98806.61
2023-03-23T20:41:51.914Z,98808.19
2023-03-23T20:46:55.321Z,98818.10
2023-03-23T20:51:58.592Z,98825.27
2023-03-23T20:57:02.037Z,98835.95
2023-03-23T21:02:05.570Z,98837.05
2023-03-23T21:07:10.070Z,98830.25
2023-03-23T21:12:13.030Z,98829.30
2023-03-23T21:17:16.199Z,98821.11
2023-03-23T21:22:19.409Z,98815.37
2023-03-23T21:27:22.340Z,98808.18
2023-03-23T21:32:26.494Z,98798.96
2023-03-23T21:37:30.013Z,98805.36
2023-03-23T21:42:32.988Z,98808.08
2023-03-23T21:47:37.398Z,98803.06
2023-03-23T21:52:43.393Z,98806.13
2023-03-23T21:57:47.230Z,98801.77
2023-03-23T22:02:51.834Z,98802.91
2023-03-23T22:07:54.821Z,98800.63
2023-03-23T22:12:57.789Z,98789.80
2023-03-23T22:18:01.082Z,98783.48
2023-03-23T22:23:04.027Z,98788.52
2023-03-23T22:28:07.077Z,98789.98
2023-03-23T22:33:10.015Z,98794.93
2023-03-23T22:38:12.971Z,98798.73
2023-03-23T22:43:15.886Z,98803.21
2023-03-23T22:48:21.929Z,98809.36
2023-03-23T22:53:25.642Z,98812.80
2023-03-23T22:58:29.090Z,98812.42
2023-03-23T23:03:32.174Z,98811.29
2023-03-23T23:08:35.223Z,98811.83
2023-03-23T23:13:39.957Z,98807.83
2023-03-23T23:18:44.319Z,98808.70
2023-03-23T23:23:47.852Z,98808.69
2023-03-23T23:28:51.529Z,98810.02
2023-03-23T23:33:57.062Z,98811.15
2023-03-23T23:39:01.939Z,98812.21
2023-03-23T23:44:05.689Z,98808.76
2023-03-23T23:49:08.641Z,98809.17
2023-03-23T23:54:22.715Z,98816.63
2023-03-23T23:59:27.084Z,98822.69
